RS-0001 weather

Bela Crkva Airport
Bela Crkva, South Banat, Serbia

Public forecast

Using degrees Celsius for public forecast. Weather courtesy of forecast.io.

Closest aviation weather report (METAR) to Bela Crkva Airport

Closest report is Vršac International Airport, 13.6 nm (25.1 km) N. Retrieved 2019/12/09 08:30 UTC (0 seconds ago):

LYVR 090830Z 16021KT CAVOK 10/02 Q1013 NOSIG

Closest aviation forecast (TAF) to Bela Crkva Airport

Closest forecast is Vršac International Airport, 13.6 nm (25.1 km) N. Retrieved 2019/12/09 06:00 UTC (2 hours ago):

TAF LYVR 090500Z 0906/1006 16012KT CAVOK TX12/0913Z TN05/1006Z TEMPO 0906/0912 16015G25KT TEMPO 0915/1003 14018G30KT